Tracy, Missouri
Current Conditions -  °F | °C
As of 5:53 PM on Saturday 22 Nov 2014 (Local Time) from KMCI Reporting Station
Scattered Clouds Scattered Clouds  
Wind Chill: 12°   Ceiling: Unl
Heat Index: 12°   Visibility: 10mi
Dew Point: 10°   Wind: 13mph
Humidity: 86%   Direction: 170°S
Pressure: 29.75"   Gusts: NA
Location:  39.3588°N, 94.8136°W
Report Text: KMCI 222353Z 17011KT 10SM SCT250 12/10 A2975 RMK AO2 SLP074 T01220100 10144 20122 58014
Loading
Personal Weather Stations






























Interactive Weather Map New forecast layout! Learn more

10-Day Weather Forecast

Advertisements
Track Severe Weather on mobile